Авиационная погода в аэропорту Сокол

Регион: 
Погода METAR: 
UHMM 261800Z 35003MPS 9999 BKN047 M18/M26 Q1020 RMK QFE750 R28/10002MPS
Время наблюдения
2021-02-26T18:00:00Z
Температура C
-18.0
Точка росы
-26.0
Направление ветра
350
Скорость ветра (узлы)
6
Метео видимость
6.21
Явления погоды
Условия полета
VFR
Аэропорт подробнее: